Time;durP1;ratioP1;P1;durP2;ratioP2;P2;SDS_P1;SDS_P2;PMS_P1;PMS_P2;Temp;Humidity;BMP_temperature;BMP_pressure;BME280_temperature;BME280_humidity;BME280_pressure;Samples;Min_cycle;Max_cycle;Signal;HPM_P1;HPM_P2
2022/02/25 00:00:47;;;;;;;76.33;28.10;;;3.50;99.90;;;;;;5114351;28;20693;-84
2022/02/25 00:03:14;;;;;;;41.07;13.50;;;3.40;99.90;;;;;;5113187;28;20181;-84
2022/02/25 00:05:41;;;;;;;28.53;12.90;;;3.40;99.90;;;;;;5112893;28;20210;-84
2022/02/25 00:08:07;;;;;;;24.87;8.70;;;3.40;99.90;;;;;;5112387;28;20619;-83
2022/02/25 00:10:32;;;;;;;15.07;6.27;;;3.40;99.90;;;;;;5112521;28;20227;-83
2022/02/25 00:12:58;;;;;;;36.20;14.03;;;3.40;99.90;;;;;;5113750;28;20225;-84
2022/02/25 00:15:24;;;;;;;19.23;9.23;;;3.40;99.90;;;;;;5113192;28;20210;-83
2022/02/25 00:17:49;;;;;;;23.77;8.67;;;3.40;99.90;;;;;;5114900;28;20210;-84
2022/02/25 00:20:15;;;;;;;20.80;6.23;;;4.80;99.90;;;;;;5114023;28;20583;-84
2022/02/25 00:22:42;;;;;;;15.13;7.53;;;3.40;99.90;;;;;;5113516;28;20288;-84
2022/02/25 00:25:09;;;;;;;15.77;7.33;;;3.60;99.90;;;;;;5114269;28;20590;-81
2022/02/25 00:27:39;;;;;;;16.60;6.37;;;3.50;99.90;;;;;;5114409;28;20177;-82
2022/02/25 00:30:06;;;;;;;23.53;8.50;;;3.50;99.90;;;;;;5096322;28;20539;-82
2022/02/25 00:32:32;;;;;;;15.87;6.47;;;3.50;99.90;;;;;;5114490;28;20288;-83
2022/02/25 00:34:57;;;;;;;16.10;6.23;;;3.70;99.90;;;;;;5113337;28;20174;-83
2022/02/25 00:37:23;;;;;;;16.53;6.33;;;;;;;;;;5113382;28;20176;-83
2022/02/25 00:39:49;;;;;;;16.97;6.47;;;3.50;99.90;;;;;;5114481;28;20227;-83
2022/02/25 00:42:14;;;;;;;10.87;5.20;;;3.50;99.90;;;;;;5114258;28;20230;-83
2022/02/25 00:44:40;;;;;;;13.27;5.90;;;5.00;99.90;;;;;;5114741;28;20249;-83
2022/02/25 00:47:06;;;;;;;16.43;6.43;;;3.50;99.90;;;;;;5123994;28;20240;-82
2022/02/25 00:49:32;;;;;;;33.23;11.57;;;3.50;99.90;;;;;;5126741;28;20182;-83
2022/02/25 00:51:58;;;;;;;13.70;5.87;;;3.50;99.90;;;;;;5124951;28;20240;-83
2022/02/25 00:54:24;;;;;;;14.13;6.10;;;;;;;;;;5111122;28;20165;-83
2022/02/25 00:56:49;;;;;;;12.13;5.57;;;3.40;99.90;;;;;;5138660;28;20173;-93
2022/02/25 00:59:15;;;;;;;23.33;8.03;;;3.50;99.90;;;;;;5155133;27;20167;-82
2022/02/25 01:01:41;;;;;;;10.43;4.97;;;3.50;99.90;;;;;;5138330;28;20182;-84
2022/02/25 01:04:07;;;;;;;12.20;5.40;;;4.10;99.90;;;;;;5136360;28;20186;-83
2022/02/25 01:06:32;;;;;;;12.87;5.40;;;3.50;99.90;;;;;;5130505;28;20550;-83
2022/02/25 01:08:58;;;;;;;11.90;4.97;;;3.50;99.90;;;;;;5132346;28;20185;-84
2022/02/25 01:11:24;;;;;;;19.23;5.80;;;5.00;99.90;;;;;;5154913;27;20165;-84
2022/02/25 01:13:49;;;;;;;13.23;5.27;;;3.40;99.90;;;;;;5137268;28;20192;-84
2022/02/25 01:16:15;;;;;;;10.80;5.07;;;4.00;99.90;;;;;;5138399;28;20185;-84
2022/02/25 01:18:41;;;;;;;16.13;5.77;;;3.40;99.90;;;;;;5126591;28;20630;-83
2022/02/25 01:21:07;;;;;;;17.03;5.80;;;3.40;99.90;;;;;;5119080;28;20180;-84
2022/02/25 01:23:33;;;;;;;13.40;4.97;;;3.40;99.90;;;;;;5100579;28;20188;-83
2022/02/25 01:25:59;;;;;;;13.17;5.23;;;4.40;99.90;;;;;;5117278;28;20181;-83
2022/02/25 01:28:25;;;;;;;10.47;4.93;;;4.10;99.90;;;;;;5118387;28;20189;-83
2022/02/25 01:30:50;;;;;;;12.83;4.60;;;4.50;99.90;;;;;;5118296;28;20701;-84
2022/02/25 01:33:16;;;;;;;12.23;5.47;;;4.30;99.90;;;;;;5118324;28;20228;-83
2022/02/25 01:35:42;;;;;;;11.53;5.20;;;3.30;99.90;;;;;;5118053;28;20183;-83
2022/02/25 01:38:09;;;;;;;12.73;5.70;;;3.30;99.90;;;;;;5121310;28;20190;-85
2022/02/25 01:40:34;;;;;;;18.77;5.87;;;3.40;99.90;;;;;;5104060;28;20189;-84
2022/02/25 01:43:00;;;;;;;16.43;4.93;;;3.30;99.90;;;;;;5102876;28;20594;-84
2022/02/25 01:45:26;;;;;;;14.50;5.20;;;4.40;99.90;;;;;;5120865;28;20669;-84
2022/02/25 01:47:52;;;;;;;15.23;5.47;;;3.30;99.90;;;;;;5116946;28;20223;-84
2022/02/25 01:50:18;;;;;;;9.50;5.10;;;3.30;99.90;;;;;;5118738;28;20217;-84
2022/02/25 01:52:55;;;;;;;14.73;5.20;;;3.30;99.90;;;;;;5117908;28;20205;-83
2022/02/25 01:55:21;;;;;;;11.07;4.20;;;3.30;99.90;;;;;;5117698;28;20535;-84
2022/02/25 01:57:46;;;;;;;14.07;6.27;;;3.30;99.90;;;;;;5100155;28;20178;-84
2022/02/25 02:00:13;;;;;;;11.37;5.30;;;3.40;99.90;;;;;;5116143;28;20661;-84
2022/02/25 02:02:39;;;;;;;19.63;5.07;;;;;;;;;;5117471;28;20283;-83
2022/02/25 02:05:05;;;;;;;12.93;5.33;;;3.40;99.90;;;;;;5116651;28;20178;-84
2022/02/25 02:07:30;;;;;;;9.23;5.10;;;3.50;99.90;;;;;;5116786;28;20186;-83
2022/02/25 02:09:56;;;;;;;9.50;4.80;;;3.50;99.90;;;;;;5115765;28;20190;-84
2022/02/25 02:12:22;;;;;;;15.07;5.27;;;4.40;99.90;;;;;;5098648;28;20224;-84
2022/02/25 02:14:48;;;;;;;11.60;5.23;;;3.60;99.90;;;;;;5117185;28;20205;-83
2022/02/25 02:17:14;;;;;;;13.90;4.70;;;3.50;99.90;;;;;;5120127;28;20170;-83
2022/02/25 02:19:40;;;;;;;11.93;4.67;;;3.60;99.90;;;;;;5120677;28;20303;-82
2022/02/25 02:22:06;;;;;;;11.40;4.93;;;3.60;99.90;;;;;;5118361;28;20187;-82
2022/02/25 02:24:33;;;;;;;9.80;4.90;;;3.60;99.90;;;;;;5120028;28;20191;-84
2022/02/25 02:26:58;;;;;;;11.27;4.73;;;3.60;99.90;;;;;;5105059;28;20210;-83
2022/02/25 02:29:24;;;;;;;12.50;5.30;;;3.60;99.90;;;;;;5123720;28;20602;-83
2022/02/25 02:31:50;;;;;;;13.73;4.27;;;3.60;99.90;;;;;;5124413;28;20233;-83
2022/02/25 02:34:17;;;;;;;13.73;4.80;;;3.60;99.90;;;;;;5103619;28;20216;-83
2022/02/25 02:36:44;;;;;;;11.90;4.77;;;3.70;99.90;;;;;;5123690;28;20334;-83
2022/02/25 02:39:11;;;;;;;12.37;6.60;;;3.50;99.90;;;;;;5120060;28;20199;-84
2022/02/25 02:41:37;;;;;;;11.00;5.13;;;3.50;99.90;;;;;;5118356;28;20625;-83
2022/02/25 02:44:04;;;;;;;15.73;6.63;;;3.50;99.90;;;;;;5117567;28;20184;-83
2022/02/25 02:46:29;;;;;;;17.57;6.13;;;3.40;99.90;;;;;;5119642;28;20176;-82
2022/02/25 02:48:55;;;;;;;11.80;5.17;;;3.50;99.90;;;;;;5118771;28;20285;-83
2022/02/25 02:51:21;;;;;;;12.20;4.67;;;3.50;99.90;;;;;;5133382;27;20185;-83
2022/02/25 02:53:46;;;;;;;11.07;5.50;;;3.60;99.90;;;;;;5110925;28;20214;-83
2022/02/25 02:56:13;;;;;;;14.83;6.30;;;3.60;99.90;;;;;;5132359;28;20207;-82
2022/02/25 02:58:39;;;;;;;11.67;5.13;;;3.60;99.90;;;;;;5131595;28;20642;-83
2022/02/25 03:01:05;;;;;;;15.57;7.10;;;3.60;99.90;;;;;;5132310;28;20178;-83
2022/02/25 03:03:31;;;;;;;9.97;4.53;;;;;;;;;;5123941;28;20182;-83
2022/02/25 03:05:57;;;;;;;10.20;5.30;;;3.50;99.90;;;;;;5115561;28;20223;-89
2022/02/25 03:08:24;;;;;;;15.40;6.20;;;;;;;;;;5114435;28;20172;-83
2022/02/25 03:10:51;;;;;;;13.07;5.83;;;3.60;99.90;;;;;;5115614;28;20203;-83
2022/02/25 03:13:17;;;;;;;56.67;20.27;;;3.50;99.90;;;;;;5097068;28;20310;-83
2022/02/25 03:15:45;;;;;;;26.03;12.03;;;4.20;99.90;;;;;;5115345;28;20172;-83
2022/02/25 03:18:11;;;;;;;19.90;8.70;;;3.50;99.90;;;;;;5115654;28;20177;-83
2022/02/25 03:20:37;;;;;;;12.87;5.77;;;3.50;99.90;;;;;;5114122;28;20189;-85
2022/02/25 03:23:03;;;;;;;20.03;8.83;;;4.40;99.90;;;;;;5114154;28;20183;-83
2022/02/25 03:25:29;;;;;;;14.87;5.93;;;3.40;99.90;;;;;;5114734;28;20181;-83
2022/02/25 03:27:55;;;;;;;15.60;6.93;;;3.40;99.90;;;;;;5097043;28;20184;-83
2022/02/25 03:30:22;;;;;;;11.80;7.03;;;3.40;99.90;;;;;;5113801;28;20189;-82
2022/02/25 03:32:48;;;;;;;16.33;7.30;;;4.40;99.90;;;;;;5113470;28;20228;-83
2022/02/25 03:35:15;;;;;;;14.20;6.37;;;3.40;99.90;;;;;;5114523;28;20182;-83
2022/02/25 03:37:41;;;;;;;14.50;5.87;;;3.40;99.90;;;;;;5113788;28;20184;-83
2022/02/25 03:40:09;;;;;;;10.77;5.13;;;3.60;99.90;;;;;;5114642;28;20314;-82
2022/02/25 03:42:35;;;;;;;21.70;15.20;;;3.40;99.90;;;;;;5113188;28;20190;-83
2022/02/25 03:45:04;;;;;;;19.30;9.67;;;3.30;99.90;;;;;;5113975;28;20325;-82
2022/02/25 03:47:33;;;;;;;18.67;8.90;;;4.20;99.90;;;;;;5113178;28;20173;-83
2022/02/25 03:50:00;;;;;;;16.93;6.20;;;3.40;99.90;;;;;;5113821;28;20215;-82
2022/02/25 03:52:26;;;;;;;20.33;9.43;;;3.30;99.90;;;;;;5114236;28;20232;-82
2022/02/25 03:54:51;;;;;;;16.07;6.33;;;3.30;99.90;;;;;;5115232;28;20565;-83
2022/02/25 03:57:17;;;;;;;11.53;5.83;;;3.30;99.90;;;;;;5114694;28;20645;-82
2022/02/25 03:59:43;;;;;;;13.90;7.03;;;3.30;99.90;;;;;;5079274;28;20186;-83
2022/02/25 04:02:08;;;;;;;22.23;10.83;;;3.30;99.90;;;;;;5113835;28;20319;-84
2022/02/25 04:04:34;;;;;;;24.73;11.03;;;3.30;99.90;;;;;;5113447;28;20651;-84
2022/02/25 04:07:00;;;;;;;21.77;9.20;;;4.70;99.90;;;;;;5113209;28;20530;-82
2022/02/25 04:09:25;;;;;;;36.77;15.40;;;4.00;99.90;;;;;;5112851;28;20708;-83
2022/02/25 04:11:53;;;;;;;32.57;13.37;;;4.70;99.90;;;;;;5113933;28;20182;-82
2022/02/25 04:14:19;;;;;;;46.03;18.33;;;3.40;99.90;;;;;;5095873;28;20178;-83
2022/02/25 04:16:49;;;;;;;22.47;9.67;;;3.40;99.90;;;;;;5112943;28;20184;-83
2022/02/25 04:19:16;;;;;;;59.27;24.77;;;3.40;99.90;;;;;;5114220;28;20255;-83
2022/02/25 04:21:43;;;;;;;48.23;19.87;;;3.40;99.90;;;;;;5114146;28;20171;-84
2022/02/25 04:24:09;;;;;;;20.80;10.43;;;3.40;99.90;;;;;;5112846;28;20177;-84
2022/02/25 04:26:35;;;;;;;11.20;6.10;;;3.40;99.90;;;;;;5112963;28;20176;-83
2022/02/25 04:29:01;;;;;;;7.97;4.10;;;3.40;99.90;;;;;;5112805;28;20520;-83
2022/02/25 04:31:26;;;;;;;10.60;5.10;;;4.20;99.90;;;;;;5113834;28;20679;-84
2022/02/25 04:33:52;;;;;;;9.17;4.10;;;3.50;99.90;;;;;;5092558;28;20239;-84
2022/02/25 04:36:21;;;;;;;12.10;4.90;;;3.50;99.90;;;;;;5093419;28;20173;-84
2022/02/25 04:38:48;;;;;;;7.47;3.73;;;3.60;99.90;;;;;;5093711;28;20179;-84
2022/02/25 04:41:13;;;;;;;8.27;3.40;;;3.50;99.90;;;;;;5092487;28;20182;-84
2022/02/25 04:43:39;;;;;;;20.30;7.67;;;3.60;99.90;;;;;;5084830;28;20244;-84
2022/02/25 04:46:05;;;;;;;7.13;4.23;;;4.40;99.90;;;;;;5070213;28;20189;-84
2022/02/25 04:48:31;;;;;;;10.93;4.43;;;3.80;99.90;;;;;;5073649;28;20182;-84
2022/02/25 04:50:56;;;;;;;26.27;7.23;;;3.60;99.90;;;;;;5071169;28;20207;-84
2022/02/25 04:53:22;;;;;;;14.40;4.87;;;3.70;99.90;;;;;;5078857;28;20259;-84
2022/02/25 04:55:48;;;;;;;11.27;4.47;;;3.60;99.90;;;;;;5066361;28;20768;-84
2022/02/25 04:58:14;;;;;;;20.70;6.37;;;3.60;99.90;;;;;;5100853;28;20676;-83
2022/02/25 05:00:40;;;;;;;10.77;4.33;;;3.60;99.90;;;;;;5078503;28;20171;-85
2022/02/25 05:03:07;;;;;;;9.40;4.63;;;3.60;99.90;;;;;;5075147;28;20198;-84
2022/02/25 05:05:32;;;;;;;7.93;4.03;;;3.60;99.90;;;;;;5091947;28;20183;-84
2022/02/25 05:07:59;;;;;;;9.27;4.83;;;3.60;99.90;;;;;;5075947;28;20536;-84
2022/02/25 05:10:28;;;;;;;14.23;4.83;;;3.70;99.90;;;;;;5090233;28;20575;-84
2022/02/25 05:12:54;;;;;;;14.50;5.60;;;3.60;99.90;;;;;;5090601;28;20205;-84
2022/02/25 05:20:59;;;;;;;17.27;5.23;;;3.70;99.90;;;;;;5097796;28;20679;-85
2022/02/25 05:23:25;;;;;;;12.37;4.17;;;3.70;99.90;;;;;;5089043;28;20186;-84
2022/02/25 05:25:51;;;;;;;10.20;4.70;;;3.70;99.90;;;;;;5096110;28;20720;-84
2022/02/25 05:28:17;;;;;;;11.37;4.40;;;3.70;99.90;;;;;;5098019;28;20229;-84
2022/02/25 05:30:43;;;;;;;9.90;5.10;;;5.20;99.90;;;;;;5097084;28;20184;-84
2022/02/25 05:33:08;;;;;;;6.77;3.90;;;3.70;99.90;;;;;;5110091;28;20251;-84
2022/02/25 05:35:34;;;;;;;11.70;5.93;;;3.70;99.90;;;;;;5110034;27;20179;-83
2022/02/25 05:38:00;;;;;;;11.00;4.70;;;3.70;99.90;;;;;;5113865;28;20715;-82
2022/02/25 05:40:26;;;;;;;7.87;4.63;;;3.70;99.90;;;;;;5111536;28;20721;-85
2022/02/25 05:42:52;;;;;;;11.93;5.23;;;3.70;99.90;;;;;;5113102;27;20188;-87
2022/02/25 05:45:19;;;;;;;9.50;5.13;;;3.70;99.90;;;;;;5110080;28;20192;-85
2022/02/25 05:47:45;;;;;;;13.93;4.90;;;3.70;99.90;;;;;;5108383;28;20188;-87
2022/02/25 05:50:18;;;;;;;5.77;3.63;;;3.70;99.90;;;;;;5102159;28;20693;-84
2022/02/25 05:52:44;;;;;;;10.00;3.77;;;3.70;99.90;;;;;;5112231;27;20673;-84
2022/02/25 05:55:10;;;;;;;12.23;5.83;;;3.80;99.90;;;;;;5079400;28;20268;-86
2022/02/25 05:57:36;;;;;;;11.63;5.00;;;3.80;99.90;;;;;;5112217;28;20268;-83
2022/02/25 06:00:04;;;;;;;13.43;5.00;;;3.80;99.90;;;;;;5105730;28;20197;-85
2022/02/25 06:02:30;;;;;;;8.13;4.70;;;3.80;99.90;;;;;;5108233;28;20189;-86
2022/02/25 06:04:55;;;;;;;11.33;4.73;;;3.80;99.90;;;;;;5104006;28;20189;-86
2022/02/25 06:07:21;;;;;;;12.17;4.37;;;3.90;99.90;;;;;;5110657;28;20181;-85
2022/02/25 06:09:48;;;;;;;9.67;5.10;;;3.90;99.90;;;;;;5115063;28;20186;-86
2022/02/25 06:12:14;;;;;;;13.97;6.07;;;3.90;99.90;;;;;;5115494;28;20239;-85
2022/02/25 06:14:40;;;;;;;12.60;5.37;;;3.80;99.90;;;;;;5116781;28;20180;-85
2022/02/25 06:17:05;;;;;;;11.57;4.90;;;3.90;99.90;;;;;;5106477;28;20227;-85
2022/02/25 06:19:33;;;;;;;12.43;4.97;;;3.80;99.90;;;;;;5115040;28;20189;-86
2022/02/25 06:21:58;;;;;;;9.40;4.47;;;3.80;99.90;;;;;;5116040;28;20222;-85
2022/02/25 06:24:24;;;;;;;10.53;4.27;;;3.80;99.90;;;;;;5115740;28;20213;-86
2022/02/25 06:26:50;;;;;;;15.60;5.63;;;3.80;99.90;;;;;;5115733;28;20187;-85
2022/02/25 06:29:16;;;;;;;14.23;5.07;;;3.80;99.90;;;;;;5114585;28;20667;-85
2022/02/25 06:31:42;;;;;;;13.27;5.17;;;4.10;99.90;;;;;;5089347;28;20609;-88
2022/02/25 06:34:07;;;;;;;14.93;5.07;;;3.80;99.90;;;;;;5113023;27;20219;-87
2022/02/25 06:36:33;;;;;;;8.87;4.87;;;3.90;99.90;;;;;;5098676;28;20185;-85
2022/02/25 06:38:59;;;;;;;11.47;5.37;;;3.90;99.90;;;;;;5115808;28;20213;-86
2022/02/25 06:41:25;;;;;;;10.37;5.07;;;3.90;99.90;;;;;;5115994;28;20283;-86
2022/02/25 06:43:51;;;;;;;10.80;5.20;;;4.30;99.90;;;;;;5114553;28;20193;-85
2022/02/25 06:46:17;;;;;;;12.67;5.03;;;4.00;99.90;;;;;;5116820;28;20191;-86
2022/02/25 06:48:43;;;;;;;13.43;4.80;;;4.10;99.90;;;;;;5117116;28;20189;-86
2022/02/25 06:51:09;;;;;;;11.20;5.20;;;4.20;99.90;;;;;;5117093;28;20219;-86
2022/02/25 06:53:36;;;;;;;11.67;4.40;;;4.20;99.90;;;;;;5124094;28;20680;-85
2022/02/25 06:56:03;;;;;;;10.63;5.30;;;4.20;99.90;;;;;;5129988;28;20182;-87
2022/02/25 06:58:29;;;;;;;10.63;4.67;;;4.20;99.90;;;;;;5121594;28;20188;-87
2022/02/25 07:00:55;;;;;;;11.87;5.33;;;4.20;99.90;;;;;;5136854;28;20211;-87
2022/02/25 07:03:20;;;;;;;15.33;5.53;;;4.20;99.90;;;;;;5136073;28;20170;-91
2022/02/25 07:05:46;;;;;;;14.33;5.43;;;4.20;99.90;;;;;;5139079;28;20188;-86
2022/02/25 07:08:12;;;;;;;11.83;5.60;;;4.20;99.90;;;;;;5139532;28;20163;-88
2022/02/25 07:10:39;;;;;;;10.57;5.07;;;4.20;99.90;;;;;;5139688;28;20213;-91
2022/02/25 07:13:07;;;;;;;11.57;5.10;;;4.30;99.90;;;;;;5139104;28;20281;-90
2022/02/25 07:15:33;;;;;;;10.30;4.20;;;;;;;;;;5134553;28;20218;-88
2022/02/25 07:17:59;;;;;;;10.50;5.30;;;4.30;99.90;;;;;;5137583;28;20201;-90
2022/02/25 07:20:25;;;;;;;14.20;5.30;;;4.40;99.90;;;;;;5173547;27;20217;-90
2022/02/25 07:22:51;;;;;;;10.90;5.37;;;4.40;99.90;;;;;;5122182;28;20169;-89
2022/02/25 07:25:17;;;;;;;9.83;4.70;;;4.40;99.90;;;;;;5139079;28;20244;-90
2022/02/25 07:27:44;;;;;;;14.40;5.90;;;4.60;99.90;;;;;;5139604;28;20177;-91
2022/02/25 07:30:11;;;;;;;17.80;6.80;;;4.50;99.90;;;;;;5127515;28;20237;-87
2022/02/25 07:32:37;;;;;;;14.37;6.27;;;4.50;99.90;;;;;;5103539;28;20230;-87
2022/02/25 07:35:06;;;;;;;15.70;5.93;;;4.50;99.90;;;;;;5094909;28;20190;-88
2022/02/25 07:37:31;;;;;;;14.30;6.03;;;4.60;99.90;;;;;;5102832;28;20227;-88
2022/02/25 07:39:57;;;;;;;12.47;5.73;;;4.60;99.90;;;;;;5082163;28;20170;-87
2022/02/25 07:42:23;;;;;;;13.17;5.93;;;4.70;99.90;;;;;;5114648;27;20181;-88
2022/02/25 07:44:49;;;;;;;12.57;5.70;;;4.70;99.90;;;;;;5117695;28;20184;-88
2022/02/25 07:47:17;;;;;;;11.77;5.47;;;4.80;99.90;;;;;;5108797;28;20189;-88
2022/02/25 07:49:45;;;;;;;18.07;5.73;;;4.80;99.90;;;;;;5109355;28;20182;-87
2022/02/25 07:52:10;;;;;;;13.50;5.47;;;5.00;99.90;;;;;;5114271;28;20217;-88
2022/02/25 07:54:36;;;;;;;10.73;4.70;;;5.00;99.90;;;;;;5114019;28;20295;-88
2022/02/25 07:57:02;;;;;;;14.57;6.23;;;5.00;99.90;;;;;;5098468;28;20238;-87
2022/02/25 07:59:27;;;;;;;10.60;5.47;;;5.00;99.90;;;;;;5116484;28;20185;-87
2022/02/25 08:01:53;;;;;;;16.40;5.93;;;5.10;99.90;;;;;;5112942;28;20184;-86
2022/02/25 08:04:19;;;;;;;10.57;6.00;;;5.00;99.90;;;;;;5115154;28;20192;-88
2022/02/25 08:06:45;;;;;;;17.13;5.90;;;5.00;99.90;;;;;;5115495;28;20181;-88
2022/02/25 08:09:11;;;;;;;14.60;5.80;;;5.00;99.90;;;;;;5114617;28;20616;-87
2022/02/25 08:11:37;;;;;;;15.97;7.00;;;5.10;99.90;;;;;;5112896;28;20182;-86
2022/02/25 08:14:03;;;;;;;16.33;4.83;;;5.10;99.90;;;;;;5115252;28;20221;-87
2022/02/25 08:16:29;;;;;;;14.07;5.73;;;5.10;99.90;;;;;;5112644;28;20178;-87
2022/02/25 08:18:55;;;;;;;17.57;6.13;;;5.10;99.90;;;;;;5126386;28;20169;-83
2022/02/25 08:21:21;;;;;;;15.47;5.70;;;;;;;;;;5108696;28;20538;-85
2022/02/25 08:23:47;;;;;;;10.27;5.27;;;5.20;99.90;;;;;;5126114;28;20189;-85
2022/02/25 08:26:13;;;;;;;12.60;5.87;;;5.20;99.90;;;;;;5126314;28;20275;-86
2022/02/25 08:28:38;;;;;;;15.70;6.37;;;5.20;99.90;;;;;;5128396;28;20189;-86
2022/02/25 08:31:07;;;;;;;17.03;6.13;;;5.20;99.90;;;;;;5132080;28;20188;-85
2022/02/25 08:33:33;;;;;;;11.30;5.63;;;5.30;99.90;;;;;;5128929;28;20239;-85
2022/02/25 08:35:58;;;;;;;10.37;4.87;;;5.40;99.90;;;;;;5128807;28;20267;-84
2022/02/25 08:38:24;;;;;;;14.23;5.77;;;5.50;99.90;;;;;;5121495;28;20194;-85
2022/02/25 08:40:50;;;;;;;11.33;5.40;;;5.50;99.90;;;;;;5098990;28;20208;-86
2022/02/25 08:43:15;;;;;;;9.90;5.10;;;5.60;99.90;;;;;;5114287;28;20177;-85
2022/02/25 08:45:41;;;;;;;16.40;6.30;;;5.60;99.90;;;;;;5115935;28;20178;-85
2022/02/25 08:48:08;;;;;;;12.93;5.50;;;5.50;99.90;;;;;;5113666;28;20251;-87
2022/02/25 08:50:34;;;;;;;9.20;4.07;;;5.50;99.90;;;;;;5114204;28;20652;-87
2022/02/25 08:53:00;;;;;;;15.50;5.73;;;5.50;99.90;;;;;;5118719;28;20220;-85
2022/02/25 08:55:26;;;;;;;10.33;5.33;;;5.50;99.90;;;;;;5114129;28;20517;-86
2022/02/25 08:57:52;;;;;;;15.47;5.60;;;5.50;99.90;;;;;;5113142;28;20182;-85
2022/02/25 09:00:23;;;;;;;15.10;6.10;;;5.50;99.90;;;;;;5116680;28;20178;-86
2022/02/25 09:02:50;;;;;;;11.83;5.13;;;;;;;;;;5121389;28;20255;-85
2022/02/25 09:05:17;;;;;;;13.63;4.43;;;5.40;99.90;;;;;;5129467;28;20154;-84
2022/02/25 09:07:43;;;;;;;10.77;4.40;;;5.40;99.90;;;;;;5130251;28;20173;-84
2022/02/25 09:10:11;;;;;;;8.10;4.83;;;5.20;99.90;;;;;;5124288;28;20638;-84
2022/02/25 09:12:37;;;;;;;13.10;5.40;;;5.20;99.90;;;;;;5113351;28;20214;-86
2022/02/25 09:15:04;;;;;;;8.47;4.83;;;5.20;99.90;;;;;;5125788;28;20234;-85
2022/02/25 09:17:30;;;;;;;6.57;4.47;;;5.20;99.90;;;;;;5127163;28;20170;-84
2022/02/25 09:19:56;;;;;;;6.77;4.27;;;5.10;99.90;;;;;;5128291;28;20262;-85
2022/02/25 09:22:22;;;;;;;8.70;4.53;;;5.10;99.90;;;;;;5128847;28;20234;-84
2022/02/25 09:24:48;;;;;;;7.13;4.53;;;5.10;99.90;;;;;;5125349;28;20180;-85
2022/02/25 09:27:14;;;;;;;9.33;4.23;;;5.00;99.90;;;;;;5129821;28;20178;-84
2022/02/25 09:29:40;;;;;;;7.67;4.23;;;5.00;99.90;;;;;;5129696;28;20196;-86
2022/02/25 09:32:07;;;;;;;8.77;4.20;;;4.90;99.90;;;;;;5114379;28;20302;-87
2022/02/25 09:34:34;;;;;;;7.23;4.30;;;4.90;99.90;;;;;;5129994;28;20227;-86
2022/02/25 09:37:00;;;;;;;7.37;4.93;;;;;;;;;;5114304;28;20212;-86
2022/02/25 09:39:30;;;;;;;11.40;4.27;;;4.80;99.90;;;;;;5126733;28;20176;-88
2022/02/25 09:41:59;;;;;;;8.70;4.50;;;4.80;99.90;;;;;;5117242;28;20712;-86
2022/02/25 09:44:25;;;;;;;11.43;4.77;;;;;;;;;;5117084;28;20174;-85
2022/02/25 09:46:51;;;;;;;6.73;3.80;;;4.60;99.90;;;;;;5133466;28;20193;-82
2022/02/25 09:49:18;;;;;;;10.37;4.87;;;4.60;99.90;;;;;;5117469;28;20197;-85
2022/02/25 09:51:49;;;;;;;7.20;4.23;;;4.50;99.90;;;;;;5133580;28;20174;-87
2022/02/25 09:54:16;;;;;;;7.97;4.13;;;4.40;99.90;;;;;;5134627;28;20207;-85
2022/02/25 09:56:46;;;;;;;7.17;4.17;;;4.30;99.90;;;;;;5099295;28;20185;-86
2022/02/25 09:59:12;;;;;;;5.50;3.97;;;;;;;;;;5133859;28;20161;-85
2022/02/25 10:01:38;;;;;;;7.10;4.20;;;4.20;99.90;;;;;;5132752;28;20181;-86
2022/02/25 10:04:19;;;;;;;3.63;2.77;;;4.10;99.90;;;;;;5125949;28;20208;-85
2022/02/25 10:06:45;;;;;;;3.90;2.93;;;4.10;99.90;;;;;;5126777;28;20148;-86
2022/02/25 10:09:32;;;;;;;5.17;2.33;;;3.90;99.90;;;;;;5127077;28;20190;-84
2022/02/25 10:12:11;;;;;;;5.57;3.67;;;3.80;99.90;;;;;;5131608;28;20177;-86
2022/02/25 10:14:43;;;;;;;6.43;4.13;;;3.80;99.90;;;;;;5130868;28;20177;-86
2022/02/25 10:17:20;;;;;;;7.30;4.30;;;3.80;99.90;;;;;;5133483;28;20276;-86
2022/02/25 10:19:54;;;;;;;11.97;5.10;;;3.90;99.90;;;;;;5133683;28;20172;-87
2022/02/25 10:22:26;;;;;;;7.30;5.43;;;4.00;99.90;;;;;;5133627;28;20258;-86
2022/02/25 10:24:55;;;;;;;11.83;6.53;;;4.00;99.90;;;;;;5135165;28;20167;-88
2022/02/25 10:27:26;;;;;;;9.53;6.23;;;4.10;99.90;;;;;;5133631;28;20178;-86
2022/02/25 10:30:04;;;;;;;14.70;7.67;;;4.20;99.90;;;;;;5131285;28;20174;-87
2022/02/25 10:32:39;;;;;;;13.33;7.27;;;4.20;99.90;;;;;;5130144;28;20236;-86
2022/02/25 10:35:26;;;;;;;10.00;6.70;;;4.20;99.90;;;;;;5131623;28;20158;-82
2022/02/25 10:38:12;;;;;;;9.73;6.20;;;4.30;99.90;;;;;;5128488;28;20180;-85
2022/02/25 10:40:47;;;;;;;8.67;6.33;;;4.40;99.90;;;;;;5163305;27;20181;-86
2022/02/25 10:43:19;;;;;;;8.83;6.23;;;4.40;99.90;;;;;;5130156;28;20180;-85
2022/02/25 10:45:56;;;;;;;13.03;6.87;;;4.40;99.90;;;;;;5132665;28;20180;-88
2022/02/25 10:48:33;;;;;;;9.57;5.97;;;4.50;99.90;;;;;;5121700;28;20272;-86
2022/02/25 10:51:04;;;;;;;10.77;7.17;;;5.20;99.90;;;;;;5115284;28;20170;-86
2022/02/25 10:53:33;;;;;;;11.37;6.40;;;4.60;99.90;;;;;;5115194;28;20216;-87
2022/02/25 10:56:09;;;;;;;7.87;5.87;;;4.50;99.90;;;;;;5113669;28;20180;-86
2022/02/25 10:58:41;;;;;;;10.23;6.27;;;4.60;99.90;;;;;;5113739;28;20259;-88
2022/02/25 11:01:07;;;;;;;7.17;5.03;;;4.70;99.90;;;;;;5115481;28;20184;-88
2022/02/25 11:03:33;;;;;;;9.40;6.60;;;4.80;99.90;;;;;;5114834;28;20181;-87
2022/02/25 11:05:59;;;;;;;10.40;6.17;;;4.80;99.90;;;;;;5114802;28;20177;-87
2022/02/25 11:08:25;;;;;;;10.57;5.93;;;4.90;99.90;;;;;;5115127;28;20161;-88
2022/02/25 11:10:51;;;;;;;7.87;5.70;;;4.90;99.90;;;;;;5147552;27;20669;-86
2022/02/25 11:13:19;;;;;;;8.70;4.50;;;5.30;99.90;;;;;;5114433;28;20211;-89
2022/02/25 11:15:45;;;;;;;7.70;5.03;;;5.20;99.90;;;;;;5113436;28;20197;-87
2022/02/25 11:18:11;;;;;;;6.77;4.40;;;5.30;99.90;;;;;;5096536;28;20216;-87
2022/02/25 11:20:40;;;;;;;9.73;4.70;;;5.40;99.90;;;;;;5116752;28;20230;-89
2022/02/25 11:23:12;;;;;;;6.00;4.53;;;5.50;99.90;;;;;;5116723;28;20178;-87
2022/02/25 11:25:40;;;;;;;5.87;4.27;;;5.50;99.90;;;;;;5114834;28;20174;-87
2022/02/25 11:28:07;;;;;;;7.13;4.00;;;5.60;99.90;;;;;;5113581;28;20261;-87
2022/02/25 11:30:46;;;;;;;6.23;4.40;;;5.70;99.90;;;;;;5113342;28;20634;-87
2022/02/25 11:33:24;;;;;;;3.97;3.47;;;5.70;99.90;;;;;;5112858;28;20244;-87
2022/02/25 11:35:53;;;;;;;9.17;4.87;;;5.60;99.90;;;;;;5114181;28;20170;-89
2022/02/25 11:38:40;;;;;;;5.93;3.67;;;5.70;99.90;;;;;;5112890;28;20177;-86
2022/02/25 11:41:14;;;;;;;6.37;4.00;;;5.70;99.90;;;;;;5114060;28;20699;-87
2022/02/25 11:43:50;;;;;;;7.07;4.17;;;5.60;99.90;;;;;;5112896;28;20590;-88
2022/02/25 11:46:29;;;;;;;4.63;3.50;;;5.70;99.90;;;;;;5114968;28;20181;-87
2022/02/25 11:48:57;;;;;;;5.97;4.57;;;5.70;99.90;;;;;;5113926;28;20177;-86
2022/02/25 11:51:39;;;;;;;7.17;3.73;;;5.70;99.90;;;;;;5114234;28;20269;-86
2022/02/25 11:54:24;;;;;;;4.37;3.17;;;5.70;99.90;;;;;;5117776;28;20209;-86
2022/02/25 11:57:04;;;;;;;4.40;3.43;;;5.70;99.90;;;;;;5122504;28;20196;-86
2022/02/25 11:59:33;;;;;;;5.00;3.33;;;5.70;99.90;;;;;;5117288;28;20169;-87
2022/02/25 12:02:30;;;;;;;6.30;3.37;;;5.70;99.90;;;;;;5113871;28;20170;-87
2022/02/25 12:05:04;;;;;;;5.63;3.17;;;5.80;99.90;;;;;;5113685;28;20165;-86
2022/02/25 12:07:41;;;;;;;9.20;3.00;;;5.80;99.90;;;;;;5112529;28;20182;-86
2022/02/25 12:10:12;;;;;;;5.70;2.70;;;5.90;99.90;;;;;;5113694;28;20162;-85
2022/02/25 12:12:45;;;;;;;6.80;3.47;;;5.90;99.90;;;;;;5113863;28;20206;-86
2022/02/25 12:15:21;;;;;;;8.00;2.87;;;5.80;99.90;;;;;;5113821;28;20200;-86
2022/02/25 12:17:48;;;;;;;4.80;3.07;;;5.90;99.90;;;;;;5114340;28;20169;-86
2022/02/25 12:20:19;;;;;;;5.70;3.60;;;5.90;99.90;;;;;;5112260;28;20540;-85
2022/02/25 12:22:57;;;;;;;4.97;2.93;;;6.20;99.90;;;;;;5146702;27;20177;-85
2022/02/25 12:25:41;;;;;;;9.00;3.77;;;5.90;99.90;;;;;;5112110;28;20180;-86
2022/02/25 12:28:27;;;;;;;10.07;3.17;;;5.80;99.90;;;;;;5113977;28;20189;-86
2022/02/25 12:30:56;;;;;;;3.43;2.40;;;6.00;99.90;;;;;;5113247;28;20181;-86
2022/02/25 12:33:34;;;;;;;4.27;2.47;;;6.00;99.90;;;;;;5113434;28;20727;-87
2022/02/25 12:36:03;;;;;;;4.07;2.57;;;6.10;99.90;;;;;;5113813;28;20582;-87
2022/02/25 12:38:30;;;;;;;5.40;2.60;;;6.00;99.90;;;;;;5112083;28;20182;-88
2022/02/25 12:41:18;;;;;;;3.93;1.77;;;6.10;99.90;;;;;;5112559;28;20665;-86
2022/02/25 12:43:54;;;;;;;2.27;1.73;;;6.10;99.90;;;;;;5115057;28;20293;-85
2022/02/25 12:46:22;;;;;;;2.67;1.90;;;6.10;99.90;;;;;;5114666;28;20177;-85
2022/02/25 12:48:50;;;;;;;3.10;1.70;;;6.10;99.90;;;;;;5114724;28;20250;-88
2022/02/25 12:51:16;;;;;;;4.23;1.97;;;6.20;99.90;;;;;;5115291;28;20178;-83
2022/02/25 12:54:02;;;;;;;2.93;2.00;;;6.30;99.90;;;;;;5102272;28;20209;-85
2022/02/25 12:56:33;;;;;;;2.90;1.93;;;6.40;99.90;;;;;;5115006;28;20174;-86
2022/02/25 12:59:01;;;;;;;2.00;1.63;;;6.90;99.90;;;;;;5112262;28;20184;-85
2022/02/25 13:01:28;;;;;;;5.53;1.93;;;7.40;99.90;;;;;;5113563;28;20178;-85